Nathalie — OJLP — position and weather

sailwx.info

Track history (hours):
 
Tides and Currents Weather Stations Pressure Air Temp Water Temp Dewpoint Dewpoint Depression Visibility Wind Speed Wind Dir Waves Ship Positions

Nathalie

Last reported at 2016-Aug-26 13:11 UTC. Time now 2016-Aug-27 13:30 UTC.
Position N 59°31' E 023°16'.

Length 64 m; draft 2.2 m.

Type: Cargo ship. MMSI: 230987660.

Date/timePositionNaut miles runAvg speedWind from/ knotsBaromVisibWave heightAir tempDewpointWater temp
2016-Aug-26 13:11N 59°31' E 023°16'6 9.1
2016-Aug-26 12:33N 59°35' E 023°25'9 9.4
2016-Aug-26 11:33N 59°40' E 023°40'10 9.6
2016-Aug-26 10:33N 59°46' E 023°55'10 9.6
2016-Aug-26 09:33N 59°52' E 024°09'  
2016-Aug-23 15:17N 59°42' E 024°47'7 9.2
2016-Aug-23 14:34N 59°36' E 024°52'2 0.3
2016-Aug-23 06:34N 59°34' E 024°54'8 7.9
2016-Aug-23 05:33N 59°37' E 024°40'9 8.5
2016-Aug-23 04:33N 59°39' E 024°24'18 8.6
2016-Aug-23 02:30N 59°41' E 023°49'8 8.8
2016-Aug-23 01:33N 59°42' E 023°33'11 8.9
2016-Aug-23 00:18N 59°43' E 023°11'  
2016-Aug-17 07:06N 56°07' E 016°05'6 8.2
2016-Aug-17 06:26N 56°01' E 016°02'8 9.2
2016-Aug-17 05:34N 55°54' E 015°58'9 9.3
2016-Aug-17 04:33N 55°46' E 015°49'9 9.4
2016-Aug-17 03:33N 55°37' E 015°42'12 9.5
2016-Aug-17 02:15N 55°26' E 015°32'7 9.8
2016-Aug-17 01:33N 55°20' E 015°27'10 9.9
2016-Aug-17 00:34N 55°11' E 015°20'10 9.9
2016-Aug-16 23:32N 55°02' E 015°14'10 9.9
2016-Aug-16 22:31N 54°52' E 015°06'47 9.4
2016-Aug-16 17:33N 54°11' E 014°30'9 9.4
2016-Aug-16 16:33N 54°03' E 014°21'9 8.5
2016-Aug-16 15:33N 53°55' E 014°17'8 8.3
2016-Aug-16 14:33N 53°47' E 014°22'10 9.7
2016-Aug-16 13:33N 53°40' E 014°32'  
Track history (hours):
 
Tides and Currents Weather Stations Pressure Air Temp Water Temp Dewpoint Dewpoint Depression Visibility Wind Speed Wind Dir Waves Ship Positions

Nathalie

Last reported at 2016-Aug-26 13:11 UTC. Time now 2016-Aug-27 13:30 UTC.
Position N 59°31' E 023°16'.

Length 64 m; draft 2.2 m.

Type: Cargo ship. MMSI: 230987660.

Date/timePositionNaut miles runAvg speedWind from/ knotsBaromVisibWave heightAir tempDewpointWater temp
2016-Aug-26 13:11N 59°31' E 023°16'6 9.1
2016-Aug-26 12:33N 59°35' E 023°25'9 9.4
2016-Aug-26 11:33N 59°40' E 023°40'10 9.6
2016-Aug-26 10:33N 59°46' E 023°55'10 9.6
2016-Aug-26 09:33N 59°52' E 024°09'  
2016-Aug-23 15:17N 59°42' E 024°47'7 9.2
2016-Aug-23 14:34N 59°36' E 024°52'2 0.3
2016-Aug-23 06:34N 59°34' E 024°54'8 7.9
2016-Aug-23 05:33N 59°37' E 024°40'9 8.5
2016-Aug-23 04:33N 59°39' E 024°24'18 8.6
2016-Aug-23 02:30N 59°41' E 023°49'8 8.8
2016-Aug-23 01:33N 59°42' E 023°33'11 8.9
2016-Aug-23 00:18N 59°43' E 023°11'  
2016-Aug-17 07:06N 56°07' E 016°05'6 8.2
2016-Aug-17 06:26N 56°01' E 016°02'8 9.2
2016-Aug-17 05:34N 55°54' E 015°58'9 9.3
2016-Aug-17 04:33N 55°46' E 015°49'9 9.4
2016-Aug-17 03:33N 55°37' E 015°42'12 9.5
2016-Aug-17 02:15N 55°26' E 015°32'7 9.8
2016-Aug-17 01:33N 55°20' E 015°27'10 9.9
2016-Aug-17 00:34N 55°11' E 015°20'10 9.9
2016-Aug-16 23:32N 55°02' E 015°14'10 9.9
2016-Aug-16 22:31N 54°52' E 015°06'47 9.4
2016-Aug-16 17:33N 54°11' E 014°30'9 9.4
2016-Aug-16 16:33N 54°03' E 014°21'9 8.5
2016-Aug-16 15:33N 53°55' E 014°17'8 8.3
2016-Aug-16 14:33N 53°47' E 014°22'10 9.7
2016-Aug-16 13:33N 53°40' E 014°32'  

Dump ship's entire track history